Time;durP1;ratioP1;P1;durP2;ratioP2;P2;SDS_P1;SDS_P2;PMS_P1;PMS_P2;Temp;Humidity;BMP_temperature;BMP_pressure;BME280_temperature;BME280_humidity;BME280_pressure;Samples;Min_cycle;Max_cycle;Signal;HPM_P1;HPM_P2
2023/07/23 00:00:16;;;;;;;3.15;1.42;;;;;;;;;;5072909;28;20045;-79
2023/07/23 00:02:46;;;;;;;3.38;1.50;;;;;;;;;;5072949;28;20055;-79
2023/07/23 00:05:16;;;;;;;4.55;1.58;;;;;;;;;;5071642;28;20056;-78
2023/07/23 00:07:47;;;;;;;3.85;1.63;;;;;;;;;;5071422;28;20052;-80
2023/07/23 00:10:18;;;;;;;4.13;1.83;;;;;;;;;;5072210;28;20040;-78
2023/07/23 00:12:48;;;;;;;3.35;1.65;;;;;;;;;;5072686;28;20047;-78
2023/07/23 00:15:19;;;;;;;3.58;2.17;;;;;;;;;;5071400;28;20388;-78
2023/07/23 00:17:50;;;;;;;3.40;2.03;;;;;;;;;;5069207;28;20410;-78
2023/07/23 00:20:21;;;;;;;3.90;1.40;;;;;;;;;;5059116;28;20043;-79
2023/07/23 00:22:52;;;;;;;4.15;1.50;;;;;;;;;;5069241;28;20036;-79
2023/07/23 00:25:23;;;;;;;4.32;1.98;;;;;;;;;;5070841;28;20048;-77
2023/07/23 00:27:53;;;;;;;7.25;2.10;;;;;;;;;;5068787;28;20396;-78
2023/07/23 00:30:23;;;;;;;4.40;1.55;;;;;;;;;;5067909;28;20056;-78
2023/07/23 00:32:53;;;;;;;6.68;1.60;;;;;;;;;;5052612;28;20394;-77
2023/07/23 00:35:23;;;;;;;7.05;2.03;;;;;;;;;;5068983;28;20053;-81
2023/07/23 00:37:53;;;;;;;4.53;1.77;;;;;;;;;;5071030;28;20052;-77
2023/07/23 00:40:23;;;;;;;6.43;1.85;;;;;;;;;;5070010;28;20044;-79
2023/07/23 00:42:53;;;;;;;2.88;1.50;;;;;;;;;;5068865;28;20048;-77
2023/07/23 00:45:24;;;;;;;3.65;1.73;;;;;;;;;;5068996;28;20050;-78
2023/07/23 00:47:55;;;;;;;5.28;1.85;;;;;;;;;;5070860;28;20395;-78
2023/07/23 00:50:29;;;;;;;3.42;1.65;;;;;;;;;;5053136;28;20052;-78
2023/07/23 00:53:01;;;;;;;5.72;1.70;;;;;;;;;;5070681;28;20037;-77
2023/07/23 00:55:33;;;;;;;3.63;2.10;;;;;;;;;;5068874;28;20415;-78
2023/07/23 00:58:03;;;;;;;3.53;1.70;;;;;;;;;;5069745;28;20147;-78
2023/07/23 01:00:34;;;;;;;3.55;1.58;;;;;;;;;;5069731;28;20499;-78
2023/07/23 01:03:06;;;;;;;4.63;1.55;;;;;;;;;;5069934;28;20048;-78
2023/07/23 01:05:41;;;;;;;3.53;1.73;;;;;;;;;;5071417;28;20055;-79
2023/07/23 01:08:13;;;;;;;7.22;1.98;;;;;;;;;;5071934;28;20048;-77
2023/07/23 01:10:43;;;;;;;4.07;1.70;;;;;;;;;;5069342;28;20055;-79
2023/07/23 01:13:15;;;;;;;3.00;1.65;;;;;;;;;;5069926;28;20107;-79
2023/07/23 01:15:46;;;;;;;7.20;1.92;;;;;;;;;;5069550;28;20041;-78
2023/07/23 01:18:18;;;;;;;4.50;1.52;;;;;;;;;;5071159;28;20064;-79
2023/07/23 01:20:48;;;;;;;5.60;2.20;;;;;;;;;;5071261;28;20048;-78
2023/07/23 01:23:19;;;;;;;3.97;1.90;;;;;;;;;;5070350;28;20051;-79
2023/07/23 01:25:50;;;;;;;3.25;1.50;;;;;;;;;;5073434;28;20053;-78
2023/07/23 01:28:20;;;;;;;4.05;1.73;;;;;;;;;;5073219;28;20417;-79
2023/07/23 01:30:56;;;;;;;6.70;1.80;;;;;;;;;;5073363;28;20071;-78
2023/07/23 01:33:28;;;;;;;3.85;1.38;;;;;;;;;;5074772;28;20056;-77
2023/07/23 01:35:59;;;;;;;3.42;1.75;;;;;;;;;;5073753;28;20106;-78
2023/07/23 01:38:30;;;;;;;4.55;2.22;;;;;;;;;;5074810;28;20048;-78
2023/07/23 01:41:02;;;;;;;5.57;1.92;;;;;;;;;;5072580;28;20513;-79
2023/07/23 01:43:33;;;;;;;4.90;1.80;;;;;;;;;;5074800;28;20040;-77
2023/07/23 01:46:03;;;;;;;6.13;1.92;;;;;;;;;;5073125;28;20040;-79
2023/07/23 01:48:33;;;;;;;3.22;1.60;;;;;;;;;;5072633;28;20044;-77
2023/07/23 01:51:03;;;;;;;8.80;1.85;;;;;;;;;;5073515;28;20056;-76
2023/07/23 01:53:33;;;;;;;5.90;1.88;;;;;;;;;;5072774;28;20056;-77
2023/07/23 01:56:05;;;;;;;4.43;1.75;;;;;;;;;;5075005;28;20051;-76
2023/07/23 01:58:35;;;;;;;7.47;2.08;;;;;;;;;;5056181;28;20048;-78
2023/07/23 02:01:06;;;;;;;3.65;1.85;;;;;;;;;;5056954;28;20485;-78
2023/07/23 02:03:36;;;;;;;5.15;1.92;;;;;;;;;;5074302;28;20044;-77
2023/07/23 02:06:06;;;;;;;3.97;1.75;;;;;;;;;;5074315;28;20048;-77
2023/07/23 02:08:37;;;;;;;5.53;1.85;;;;;;;;;;5074337;28;20048;-77
2023/07/23 02:11:07;;;;;;;6.25;1.77;;;;;;;;;;5072927;28;20418;-77
2023/07/23 02:13:37;;;;;;;3.45;1.98;;;;;;;;;;5072241;28;20423;-78
2023/07/23 02:16:07;;;;;;;4.85;1.65;;;;;;;;;;5072478;28;20041;-77
2023/07/23 02:18:37;;;;;;;5.10;2.03;;;;;;;;;;5072511;28;20056;-77
2023/07/23 02:21:07;;;;;;;6.88;1.98;;;;;;;;;;5072777;28;20057;-77
2023/07/23 02:23:39;;;;;;;7.70;2.58;;;;;;;;;;5072162;28;20490;-77
2023/07/23 02:26:09;;;;;;;5.55;1.95;;;;;;;;;;5072621;28;20060;-78
2023/07/23 02:28:43;;;;;;;4.40;1.92;;;;;;;;;;5072683;28;20044;-78
2023/07/23 02:31:16;;;;;;;3.70;1.67;;;;;;;;;;5074215;28;20051;-78
2023/07/23 02:33:47;;;;;;;8.43;1.67;;;;;;;;;;5072264;28;20061;-76
2023/07/23 02:36:19;;;;;;;6.15;2.28;;;;;;;;;;5056382;28;20052;-79
2023/07/23 02:38:50;;;;;;;5.72;2.05;;;;;;;;;;5073721;28;20084;-76
2023/07/23 02:41:20;;;;;;;6.03;2.20;;;;;;;;;;5072021;28;20060;-78
2023/07/23 02:43:50;;;;;;;6.25;1.90;;;;;;;;;;5055849;28;20048;-77
2023/07/23 02:46:20;;;;;;;4.88;2.05;;;;;;;;;;5073759;28;20048;-78
2023/07/23 02:48:50;;;;;;;7.95;2.40;;;;;;;;;;5072436;28;20200;-77
2023/07/23 02:51:21;;;;;;;5.57;2.20;;;;;;;;;;5073589;28;20402;-77
2023/07/23 02:53:51;;;;;;;7.18;2.47;;;;;;;;;;5073280;28;20037;-77
2023/07/23 02:56:21;;;;;;;7.78;1.75;;;;;;;;;;5056300;28;20076;-77
2023/07/23 02:58:51;;;;;;;4.43;1.88;;;;;;;;;;5071275;28;20041;-77
2023/07/23 03:01:21;;;;;;;4.50;1.90;;;;;;;;;;5071676;28;20057;-77
2023/07/23 03:03:55;;;;;;;5.97;1.95;;;;;;;;;;5056652;28;20051;-77
2023/07/23 03:06:26;;;;;;;3.42;1.63;;;;;;;;;;5071041;28;20052;-78
2023/07/23 03:08:57;;;;;;;4.43;1.98;;;;;;;;;;5056354;28;20056;-78
2023/07/23 03:11:28;;;;;;;3.95;1.77;;;;;;;;;;5073214;28;20048;-78
2023/07/23 03:14:00;;;;;;;3.45;1.83;;;;;;;;;;5073449;28;20044;-77
2023/07/23 03:16:31;;;;;;;5.78;1.77;;;;;;;;;;5071500;28;20053;-78
2023/07/23 03:19:02;;;;;;;5.47;2.30;;;;;;;;;;5073045;28;20057;-77
2023/07/23 03:21:32;;;;;;;8.50;2.45;;;;;;;;;;5073153;28;20081;-77
2023/07/23 03:24:03;;;;;;;7.93;2.72;;;;;;;;;;5074037;28;20052;-76
2023/07/23 03:26:33;;;;;;;6.50;2.40;;;;;;;;;;5072162;28;20048;-76
2023/07/23 03:29:03;;;;;;;7.28;2.75;;;;;;;;;;5072350;28;20402;-76
2023/07/23 03:31:34;;;;;;;6.15;2.33;;;;;;;;;;5071796;28;20363;-76
2023/07/23 03:34:04;;;;;;;4.53;2.03;;;;;;;;;;5073516;28;20048;-75
2023/07/23 03:36:35;;;;;;;5.45;2.00;;;;;;;;;;5072327;28;20045;-76
2023/07/23 03:39:07;;;;;;;4.00;2.03;;;;;;;;;;5073389;28;20053;-76
2023/07/23 03:41:37;;;;;;;7.20;2.92;;;;;;;;;;5073169;28;20045;-77
2023/07/23 03:44:07;;;;;;;3.92;2.00;;;;;;;;;;5071449;28;20048;-77
2023/07/23 03:47:14;;;;;;;4.72;2.22;;;;;;;;;;5071857;28;20048;-76
2023/07/23 03:49:47;;;;;;;5.93;2.20;;;;;;;;;;5073265;28;20045;-78
2023/07/23 03:52:17;;;;;;;8.77;2.13;;;;;;;;;;5071547;28;20094;-76
2023/07/23 03:54:47;;;;;;;4.70;2.08;;;;;;;;;;5071940;28;20051;-76
2023/07/23 03:57:19;;;;;;;7.35;2.03;;;;;;;;;;5072175;28;20049;-78
2023/07/23 03:59:50;;;;;;;7.40;2.03;;;;;;;;;;5073142;28;20044;-77
2023/07/23 04:02:20;;;;;;;6.88;2.65;;;;;;;;;;5055544;28;20053;-77
2023/07/23 04:04:49;;;;;;;9.65;2.38;;;;;;;;;;5072827;28;20382;-77
2023/07/23 04:07:19;;;;;;;5.10;2.13;;;;;;;;;;5071606;28;20394;-76
2023/07/23 04:09:50;;;;;;;6.28;2.22;;;;;;;;;;5071385;28;20063;-77
2023/07/23 04:12:21;;;;;;;10.65;2.80;;;;;;;;;;5072948;28;20384;-77
2023/07/23 04:14:53;;;;;;;6.60;2.33;;;;;;;;;;5071142;28;20410;-77
2023/07/23 04:17:23;;;;;;;7.05;2.30;;;;;;;;;;5072699;28;20056;-78
2023/07/23 04:19:54;;;;;;;6.60;2.28;;;;;;;;;;5073362;28;20044;-76
2023/07/23 04:22:24;;;;;;;6.70;2.17;;;;;;;;;;5071465;28;20044;-77
2023/07/23 04:24:55;;;;;;;6.50;2.33;;;;;;;;;;5072623;28;20045;-78
2023/07/23 04:27:26;;;;;;;6.50;2.42;;;;;;;;;;5072492;28;20045;-77
2023/07/23 04:29:56;;;;;;;9.77;2.53;;;;;;;;;;5070955;28;20052;-77
2023/07/23 04:32:26;;;;;;;5.40;2.20;;;;;;;;;;5071065;28;20049;-76
2023/07/23 04:34:56;;;;;;;11.40;2.60;;;;;;;;;;5073172;28;20064;-78
2023/07/23 04:37:26;;;;;;;4.20;2.35;;;;;;;;;;5070812;28;20049;-76
2023/07/23 04:40:00;;;;;;;7.85;2.30;;;;;;;;;;5071527;28;20044;-76
2023/07/23 04:42:30;;;;;;;7.18;2.40;;;;;;;;;;5071237;28;20048;-77
2023/07/23 04:45:01;;;;;;;6.80;2.45;;;;;;;;;;5072619;28;20037;-77
2023/07/23 04:47:31;;;;;;;8.75;2.60;;;;;;;;;;5072416;28;20048;-77
2023/07/23 04:50:01;;;;;;;4.65;2.28;;;;;;;;;;5072285;28;20048;-77
2023/07/23 04:52:31;;;;;;;5.05;2.10;;;;;;;;;;5072145;28;20045;-76
2023/07/23 04:55:02;;;;;;;9.32;2.92;;;;;;;;;;5070704;28;20426;-78
2023/07/23 04:57:35;;;;;;;6.22;2.42;;;;;;;;;;5072431;28;20059;-77
2023/07/23 05:00:06;;;;;;;5.60;2.55;;;;;;;;;;5074687;28;20390;-77
2023/07/23 05:02:36;;;;;;;5.93;2.75;;;;;;;;;;5074787;28;20413;-77
2023/07/23 05:05:07;;;;;;;6.20;2.78;;;;;;;;;;5076051;28;20049;-77
2023/07/23 05:07:40;;;;;;;7.72;2.90;;;;;;;;;;5076768;28;20490;-76
2023/07/23 05:10:09;;;;;;;;;;;;;;;;;;5076812;28;20048;-77
2023/07/23 05:12:39;;;;;;;6.35;2.28;;;;;;;;;;5075996;28;19920;-77
2023/07/23 05:15:12;;;;;;;8.07;2.67;;;;;;;;;;5076286;28;20055;-77
2023/07/23 05:17:43;;;;;;;6.32;2.47;;;;;;;;;;5075992;28;20049;-76
2023/07/23 05:20:13;;;;;;;5.20;2.50;;;;;;;;;;5076856;28;20048;-76
2023/07/23 05:22:43;;;;;;;6.95;2.28;;;;;;;;;;5075099;28;20052;-77
2023/07/23 05:25:14;;;;;;;6.20;2.55;;;;;;;;;;5074449;28;20052;-76
2023/07/23 05:27:46;;;;;;;4.97;2.65;;;;;;;;;;5075760;28;20045;-77
2023/07/23 05:30:17;;;;;;;8.90;2.92;;;;;;;;;;5076010;28;20052;-75
2023/07/23 05:32:47;;;;;;;6.28;2.72;;;;;;;;;;5076467;28;20037;-76
2023/07/23 05:35:18;;;;;;;9.07;2.75;;;;;;;;;;5076333;28;20507;-77
2023/07/23 05:37:48;;;;;;;9.13;2.80;;;;;;;;;;5075619;28;20049;-76
2023/07/23 05:40:18;;;;;;;4.22;2.38;;;;;;;;;;5075776;28;20049;-76
2023/07/23 05:42:54;;;;;;;8.60;2.55;;;;;;;;;;5075460;28;20052;-75
2023/07/23 05:45:24;;;;;;;6.35;2.90;;;;;;;;;;5075841;28;20386;-76
2023/07/23 05:47:55;;;;;;;7.00;2.28;;;;;;;;;;5075288;28;20048;-78
2023/07/23 05:50:25;;;;;;;5.95;2.42;;;;;;;;;;5075565;28;20048;-75
2023/07/23 05:52:55;;;;;;;6.60;2.58;;;;;;;;;;5075306;28;20067;-76
2023/07/23 05:55:25;;;;;;;9.75;2.55;;;;;;;;;;5075965;28;20513;-77
2023/07/23 05:57:55;;;;;;;6.30;2.35;;;;;;;;;;5075390;28;20501;-77
2023/07/23 06:00:26;;;;;;;4.57;2.40;;;;;;;;;;5073958;28;20430;-76
2023/07/23 06:02:55;;;;;;;4.55;2.25;;;;;;;;;;5075108;28;20059;-76
2023/07/23 06:05:26;;;;;;;6.55;2.72;;;;;;;;;;5074863;28;20052;-76
2023/07/23 06:07:56;;;;;;;10.23;3.13;;;;;;;;;;5075042;28;20045;-77
2023/07/23 06:10:26;;;;;;;5.03;2.30;;;;;;;;;;5074505;28;20060;-76
2023/07/23 06:12:56;;;;;;;4.75;2.53;;;;;;;;;;5075393;28;20052;-77
2023/07/23 06:15:25;;;;;;;5.82;2.47;;;;;;;;;;5057312;28;20056;-76
2023/07/23 06:17:58;;;;;;;8.50;2.40;;;;;;;;;;5073275;28;20045;-77
2023/07/23 06:20:29;;;;;;;6.10;2.38;;;;;;;;;;5073383;28;20056;-76
2023/07/23 06:23:01;;;;;;;4.57;2.40;;;;;;;;;;5075115;28;20059;-76
2023/07/23 06:25:32;;;;;;;7.20;2.85;;;;;;;;;;5075085;28;20055;-77
2023/07/23 06:28:02;;;;;;;5.50;2.63;;;;;;;;;;5074960;28;20044;-76
2023/07/23 06:30:34;;;;;;;8.68;2.58;;;;;;;;;;5075266;28;20368;-77
2023/07/23 06:33:05;;;;;;;7.72;2.65;;;;;;;;;;5075429;28;20045;-76
2023/07/23 06:35:37;;;;;;;5.07;2.83;;;;;;;;;;5074462;28;20051;-77
2023/07/23 06:38:07;;;;;;;6.00;2.50;;;;;;;;;;5075004;28;20049;-78
2023/07/23 06:40:38;;;;;;;4.85;2.50;;;;;;;;;;5074343;28;20044;-76
2023/07/23 06:43:09;;;;;;;4.70;2.22;;;;;;;;;;5074163;28;20093;-76
2023/07/23 06:45:39;;;;;;;5.38;2.67;;;;;;;;;;5074630;28;20041;-77
2023/07/23 06:48:09;;;;;;;5.40;2.50;;;;;;;;;;5074799;28;20041;-77
2023/07/23 06:50:40;;;;;;;8.43;3.33;;;;;;;;;;5073021;28;20426;-77
2023/07/23 06:53:12;;;;;;;7.40;3.03;;;;;;;;;;5074431;28;20044;-76
2023/07/23 06:56:03;;;;;;;5.63;2.75;;;;;;;;;;5074350;28;20036;-76
2023/07/23 06:58:38;;;;;;;4.93;2.50;;;;;;;;;;5073941;28;20399;-77
2023/07/23 07:01:11;;;;;;;6.32;2.78;;;;;;;;;;5074511;28;20509;-77
2023/07/23 07:03:41;;;;;;;7.05;2.80;;;;;;;;;;5074036;28;20505;-76
2023/07/23 07:06:11;;;;;;;7.10;3.05;;;;;;;;;;5072540;28;20044;-76
2023/07/23 07:08:43;;;;;;;7.70;3.20;;;;;;;;;;5074127;28;20052;-77
2023/07/23 07:11:14;;;;;;;5.63;2.60;;;;;;;;;;5074315;28;20037;-76
2023/07/23 07:13:45;;;;;;;7.68;3.25;;;;;;;;;;5072978;28;20041;-75
2023/07/23 07:16:16;;;;;;;10.00;3.67;;;;;;;;;;5072041;28;20048;-75
2023/07/23 07:18:47;;;;;;;9.43;3.70;;;;;;;;;;5073187;28;20045;-75
2023/07/23 07:21:18;;;;;;;11.27;4.25;;;;;;;;;;5073554;28;20033;-78
2023/07/23 07:23:48;;;;;;;12.38;5.45;;;;;;;;;;5072998;28;20055;-76
2023/07/23 07:26:18;;;;;;;17.98;8.77;;;;;;;;;;5073363;28;20394;-76
2023/07/23 07:28:51;;;;;;;16.95;6.85;;;;;;;;;;5071395;28;20055;-77
2023/07/23 07:31:21;;;;;;;15.90;6.88;;;;;;;;;;5073847;28;20048;-76
2023/07/23 07:33:52;;;;;;;14.07;5.72;;;;;;;;;;5073614;28;20364;-76
2023/07/23 07:36:22;;;;;;;15.88;5.50;;;;;;;;;;5073327;28;20044;-76
2023/07/23 07:38:52;;;;;;;11.70;5.43;;;;;;;;;;5073187;28;20059;-77
2023/07/23 07:41:23;;;;;;;12.85;5.18;;;;;;;;;;5071881;28;20052;-77
2023/07/23 07:43:53;;;;;;;14.30;5.30;;;;;;;;;;5072979;28;20487;-76
2023/07/23 07:46:23;;;;;;;12.80;5.20;;;;;;;;;;5073332;28;20049;-76
2023/07/23 07:48:55;;;;;;;13.25;5.63;;;;;;;;;;5073259;28;20142;-77
2023/07/23 07:51:24;;;;;;;11.70;5.60;;;;;;;;;;5071717;28;20044;-78
2023/07/23 07:53:55;;;;;;;11.10;6.07;;;;;;;;;;5071255;28;20048;-77
2023/07/23 07:56:26;;;;;;;12.68;5.80;;;;;;;;;;5072902;28;20049;-76
2023/07/23 07:58:56;;;;;;;11.93;5.22;;;;;;;;;;5071417;28;20059;-77
2023/07/23 08:01:28;;;;;;;12.50;5.45;;;;;;;;;;5071864;28;20049;-77
2023/07/23 08:04:01;;;;;;;11.57;5.07;;;;;;;;;;5073162;28;20048;-77
2023/07/23 08:06:34;;;;;;;11.32;5.47;;;;;;;;;;5071596;28;20052;-76
2023/07/23 08:09:08;;;;;;;12.45;6.20;;;;;;;;;;5072039;28;20044;-79
2023/07/23 08:11:39;;;;;;;10.25;5.68;;;;;;;;;;5072890;28;20372;-77
2023/07/23 08:14:12;;;;;;;13.48;6.25;;;;;;;;;;5073051;28;20036;-78
2023/07/23 08:16:43;;;;;;;17.52;5.43;;;;;;;;;;5072488;28;20047;-77
2023/07/23 08:19:14;;;;;;;10.20;4.78;;;;;;;;;;5072930;28;20040;-77
2023/07/23 08:21:45;;;;;;;13.07;5.03;;;;;;;;;;5072944;28;20056;-77
2023/07/23 08:24:17;;;;;;;12.45;5.22;;;;;;;;;;5072768;28;20045;-77
2023/07/23 08:26:50;;;;;;;12.95;5.35;;;;;;;;;;5072805;28;20045;-77
2023/07/23 08:29:25;;;;;;;12.00;5.75;;;;;;;;;;5072630;28;20036;-77
2023/07/23 08:31:56;;;;;;;12.07;5.45;;;;;;;;;;5073087;28;20037;-77
2023/07/23 08:34:27;;;;;;;13.90;6.15;;;;;;;;;;5072512;28;20040;-78
2023/07/23 08:36:58;;;;;;;15.00;6.40;;;;;;;;;;5071439;28;20044;-76
2023/07/23 08:39:28;;;;;;;14.68;6.45;;;;;;;;;;5072652;28;20049;-77
2023/07/23 08:42:27;;;;;;;14.63;7.00;;;;;;;;;;5072664;28;20045;-77
2023/07/23 08:45:00;;;;;;;15.20;8.68;;;;;;;;;;5071327;28;20398;-76
2023/07/23 08:47:37;;;;;;;15.18;7.10;;;;;;;;;;5072566;28;20048;-78
2023/07/23 08:50:08;;;;;;;11.63;6.13;;;;;;;;;;5072402;28;20036;-76
2023/07/23 08:52:39;;;;;;;11.70;6.25;;;;;;;;;;5073050;28;20509;-77
2023/07/23 08:55:13;;;;;;;13.63;5.55;;;;;;;;;;5072790;28;20048;-77
2023/07/23 08:57:44;;;;;;;15.32;6.13;;;;;;;;;;5072538;28;20044;-77
2023/07/23 09:00:14;;;;;;;11.10;5.40;;;;;;;;;;5071159;28;20486;-77
2023/07/23 09:02:47;;;;;;;10.90;5.55;;;;;;;;;;5070452;28;20410;-77
2023/07/23 09:05:18;;;;;;;9.98;4.82;;;;;;;;;;5055357;28;20410;-77
2023/07/23 09:07:49;;;;;;;9.90;4.05;;;;;;;;;;5072489;28;20545;-78
2023/07/23 09:10:19;;;;;;;10.38;4.50;;;;;;;;;;5072257;28;20059;-77
2023/07/23 09:12:49;;;;;;;11.65;5.28;;;;;;;;;;5072217;28;20052;-79
2023/07/23 09:15:19;;;;;;;11.57;4.60;;;;;;;;;;5071797;28;20052;-78
2023/07/23 09:17:52;;;;;;;8.30;4.07;;;;;;;;;;5072479;28;20052;-78
2023/07/23 09:20:23;;;;;;;7.47;3.95;;;;;;;;;;5072177;28;20514;-78
2023/07/23 09:22:53;;;;;;;9.73;4.35;;;;;;;;;;5072022;28;20063;-77
2023/07/23 09:25:23;;;;;;;12.35;5.15;;;;;;;;;;5072151;28;20394;-78
2023/07/23 09:27:53;;;;;;;10.27;4.47;;;;;;;;;;5054775;28;20082;-78
2023/07/23 09:30:25;;;;;;;11.30;4.55;;;;;;;;;;5070941;28;20513;-78
2023/07/23 09:33:01;;;;;;;10.00;4.70;;;;;;;;;;5070708;28;20063;-76
2023/07/23 09:35:32;;;;;;;10.35;4.10;;;;;;;;;;5072478;28;20052;-76
2023/07/23 09:38:03;;;;;;;12.15;4.75;;;;;;;;;;5071666;28;20049;-75
2023/07/23 09:40:37;;;;;;;11.25;4.60;;;;;;;;;;5054516;28;20487;-74
2023/07/23 09:43:09;;;;;;;8.07;4.13;;;;;;;;;;5070450;28;20060;-76
2023/07/23 09:45:41;;;;;;;10.20;4.30;;;;;;;;;;5072343;28;20053;-77
2023/07/23 09:48:18;;;;;;;8.30;4.30;;;;;;;;;;5075936;28;20041;-76
2023/07/23 09:50:51;;;;;;;10.02;4.78;;;;;;;;;;5075927;28;20051;-75
2023/07/23 09:53:22;;;;;;;8.45;4.15;;;;;;;;;;5075590;28;20055;-77
2023/07/23 09:55:54;;;;;;;12.32;4.25;;;;;;;;;;5075367;28;20402;-75
2023/07/23 09:58:27;;;;;;;8.80;4.18;;;;;;;;;;5075213;28;20055;-75
2023/07/23 10:00:58;;;;;;;12.07;4.22;;;;;;;;;;5075017;28;20037;-76
2023/07/23 10:03:28;;;;;;;10.98;4.30;;;;;;;;;;5073922;28;20057;-75
2023/07/23 10:05:59;;;;;;;9.85;4.10;;;;;;;;;;5075297;28;20072;-74
2023/07/23 10:08:35;;;;;;;;;;;;;;;;;;5075436;28;20052;-75
2023/07/23 10:11:05;;;;;;;10.40;4.25;;;;;;;;;;5076178;28;19936;-74
2023/07/23 10:13:36;;;;;;;12.18;4.30;;;;;;;;;;5075424;28;20079;-76
2023/07/23 10:16:18;;;;;;;9.68;4.55;;;;;;;;;;5085868;28;20384;-76
2023/07/23 10:18:51;;;;;;;11.93;5.32;;;;;;;;;;5055238;28;20033;-75
2023/07/23 10:21:21;;;;;;;11.30;5.05;;;;;;;;;;5057908;28;20048;-75
2023/07/23 10:23:56;;;;;;;15.32;4.45;;;;;;;;;;5069006;28;20055;-76
2023/07/23 10:26:32;;;;;;;14.77;5.18;;;;;;;;;;5075050;28;20048;-78
2023/07/23 10:29:15;;;;;;;11.57;4.53;;;;;;;;;;5074955;28;20508;-77
2023/07/23 10:31:46;;;;;;;10.55;4.32;;;;;;;;;;5074556;28;20040;-76
2023/07/23 10:34:23;;;;;;;11.10;4.47;;;;;;;;;;5074128;28;20513;-76
2023/07/23 10:37:14;;;;;;;10.63;4.50;;;;;;;;;;5074872;28;20059;-78
2023/07/23 10:39:50;;;;;;;12.70;4.65;;;;;;;;;;5093557;28;20040;-76
2023/07/23 10:42:40;;;;;;;15.18;4.68;;;;;;;;;;5092966;28;20047;-75
2023/07/23 10:45:25;;;;;;;9.77;4.90;;;;;;;;;;5094929;28;20504;-75
2023/07/23 10:48:01;;;;;;;13.07;4.55;;;;;;;;;;5094013;28;20039;-76
2023/07/23 10:50:33;;;;;;;10.27;4.15;;;;;;;;;;5074506;28;20060;-74
2023/07/23 10:53:07;;;;;;;9.30;4.40;;;;;;;;;;5073709;28;20045;-78
2023/07/23 10:55:47;;;;;;;10.93;4.00;;;;;;;;;;5074837;28;20044;-78
2023/07/23 10:58:22;;;;;;;9.52;5.13;;;;;;;;;;5077641;28;20501;-79
2023/07/23 11:01:02;;;;;;;14.98;4.70;;;;;;;;;;5073756;28;20048;-76
2023/07/23 11:03:33;;;;;;;11.23;4.72;;;;;;;;;;5072914;28;20051;-77
2023/07/23 11:06:04;;;;;;;10.95;4.90;;;;;;;;;;5072618;28;20041;-77
2023/07/23 11:08:34;;;;;;;9.68;4.65;;;;;;;;;;5072840;28;20537;-76
2023/07/23 11:11:09;;;;;;;11.57;4.63;;;;;;;;;;5073261;28;20048;-77
2023/07/23 11:13:40;;;;;;;10.57;4.68;;;;;;;;;;5072727;28;20058;-78
2023/07/23 11:16:11;;;;;;;11.52;5.13;;;;;;;;;;5072696;28;20045;-77
2023/07/23 11:18:43;;;;;;;14.75;5.93;;;;;;;;;;5073109;28;20040;-77
2023/07/23 11:21:14;;;;;;;;;;;;;;;;;;5072212;28;20380;-78
2023/07/23 11:23:44;;;;;;;14.88;5.53;;;;;;;;;;5072866;28;19927;-77
2023/07/23 11:26:17;;;;;;;9.40;5.03;;;;;;;;;;5073069;28;20048;-77
2023/07/23 11:28:49;;;;;;;12.43;5.53;;;;;;;;;;5071529;28;20044;-78
2023/07/23 11:31:22;;;;;;;15.40;5.22;;;;;;;;;;5073031;28;20402;-76
2023/07/23 11:33:53;;;;;;;14.43;4.95;;;;;;;;;;5071543;28;20048;-77
2023/07/23 11:36:23;;;;;;;19.58;5.50;;;;;;;;;;5071188;28;20053;-78
2023/07/23 11:38:57;;;;;;;11.25;4.97;;;;;;;;;;5072895;28;20055;-78
2023/07/23 11:41:36;;;;;;;14.73;5.63;;;;;;;;;;5072945;28;20048;-77
2023/07/23 11:44:08;;;;;;;6.93;3.60;;;;;;;;;;5072682;28;20045;-77
2023/07/23 11:46:41;;;;;;;11.18;5.07;;;;;;;;;;5071198;28;20048;-77
2023/07/23 11:49:13;;;;;;;10.63;4.38;;;;;;;;;;5072538;28;20044;-78
2023/07/23 11:51:44;;;;;;;8.95;3.30;;;;;;;;;;5072437;28;20044;-78
2023/07/23 11:54:14;;;;;;;7.47;3.17;;;;;;;;;;5071652;28;20048;-78
2023/07/23 11:56:48;;;;;;;11.95;3.47;;;;;;;;;;5070405;28;20051;-79
2023/07/23 11:59:20;;;;;;;9.43;3.17;;;;;;;;;;5072793;28;20073;-78
2023/07/23 12:01:58;;;;;;;5.88;2.80;;;;;;;;;;5071449;28;20044;-77
2023/07/23 12:04:40;;;;;;;6.25;2.42;;;;;;;;;;5070371;28;20047;-77
2023/07/23 12:07:11;;;;;;;8.07;2.70;;;;;;;;;;5070429;28;20053;-77
2023/07/23 12:09:42;;;;;;;7.38;2.65;;;;;;;;;;5071026;28;20044;-77
2023/07/23 12:12:13;;;;;;;5.40;2.28;;;;;;;;;;5070163;28;20051;-77
2023/07/23 12:14:45;;;;;;;8.63;2.40;;;;;;;;;;5071836;28;20545;-78
2023/07/23 12:17:14;;;;;;;8.77;2.67;;;;;;;;;;5061688;28;20055;-76
2023/07/23 12:19:45;;;;;;;7.20;2.55;;;;;;;;;;5072126;28;20049;-77
2023/07/23 12:22:15;;;;;;;8.30;2.45;;;;;;;;;;5070356;28;20040;-78
2023/07/23 12:24:45;;;;;;;9.25;2.55;;;;;;;;;;5069223;28;20037;-77
2023/07/23 12:27:16;;;;;;;8.98;2.65;;;;;;;;;;5071249;28;20052;-76
2023/07/23 12:29:48;;;;;;;8.25;3.20;;;;;;;;;;5072145;28;20410;-77
2023/07/23 12:32:22;;;;;;;5.93;2.45;;;;;;;;;;5072968;28;20486;-78
2023/07/23 12:34:52;;;;;;;8.48;2.15;;;;;;;;;;5073140;28;20059;-76
2023/07/23 12:37:22;;;;;;;3.88;1.80;;;;;;;;;;5072605;28;20064;-77
2023/07/23 12:39:55;;;;;;;4.45;2.10;;;;;;;;;;5071908;28;20044;-77
2023/07/23 12:42:25;;;;;;;4.78;2.28;;;;;;;;;;5073212;28;20048;-76
2023/07/23 12:44:56;;;;;;;5.43;2.08;;;;;;;;;;5072872;28;20386;-76
2023/07/23 12:47:27;;;;;;;3.78;1.70;;;;;;;;;;5072686;28;20509;-77
2023/07/23 12:49:59;;;;;;;5.10;2.28;;;;;;;;;;5070765;28;20048;-75
2023/07/23 12:52:29;;;;;;;6.93;2.70;;;;;;;;;;5070816;28;20041;-76
2023/07/23 12:55:00;;;;;;;4.43;1.80;;;;;;;;;;5069458;28;20048;-77
2023/07/23 12:57:30;;;;;;;9.15;2.10;;;;;;;;;;5069708;28;20063;-76
2023/07/23 13:00:00;;;;;;;5.93;2.75;;;;;;;;;;5070381;28;20041;-77
2023/07/23 13:02:30;;;;;;;5.03;1.70;;;;;;;;;;5071357;28;20075;-76
2023/07/23 13:05:00;;;;;;;5.38;2.20;;;;;;;;;;5071139;28;20057;-76
2023/07/23 13:07:31;;;;;;;3.53;1.98;;;;;;;;;;5071190;28;20066;-76
2023/07/23 13:10:01;;;;;;;5.18;2.33;;;;;;;;;;5071302;28;20052;-76
2023/07/23 13:12:32;;;;;;;3.72;1.90;;;;;;;;;;5071321;28;20142;-76
2023/07/23 13:15:02;;;;;;;5.47;1.90;;;;;;;;;;5072361;28;20041;-76
2023/07/23 13:17:36;;;;;;;12.40;5.65;;;;;;;;;;5072940;28;20047;-77
2023/07/23 13:20:06;;;;;;;3.95;1.90;;;;;;;;;;5073484;28;20044;-75
2023/07/23 13:22:36;;;;;;;13.60;8.07;;;;;;;;;;5076283;28;20053;-76
2023/07/23 13:25:07;;;;;;;4.57;1.95;;;;;;;;;;5076425;28;20459;-76
2023/07/23 13:27:38;;;;;;;10.10;4.38;;;;;;;;;;5076125;28;20044;-75
2023/07/23 13:30:09;;;;;;;;;;;;;;;;;;5075629;28;20479;-76
2023/07/23 13:32:39;;;;;;;5.22;2.35;;;;;;;;;;5076075;28;20321;-76
2023/07/23 13:35:10;;;;;;;6.88;1.90;;;;;;;;;;5075882;28;20056;-76
2023/07/23 13:37:40;;;;;;;4.55;1.70;;;;;;;;;;5075749;28;20068;-77
2023/07/23 13:40:10;;;;;;;5.10;2.22;;;;;;;;;;5074843;28;20068;-77
2023/07/23 13:42:42;;;;;;;4.70;1.80;;;;;;;;;;5076137;28;20044;-76
2023/07/23 13:45:12;;;;;;;4.97;2.50;;;;;;;;;;5058586;28;20048;-77
2023/07/23 13:47:43;;;;;;;9.45;3.00;;;;;;;;;;5075674;28;20049;-77
2023/07/23 13:50:14;;;;;;;7.30;2.30;;;;;;;;;;5074392;28;20483;-77
2023/07/23 13:52:44;;;;;;;4.82;2.10;;;;;;;;;;5075410;28;20044;-76
2023/07/23 13:55:16;;;;;;;4.40;1.80;;;;;;;;;;5076180;28;20044;-78
2023/07/23 13:57:47;;;;;;;4.40;2.03;;;;;;;;;;5075728;28;20045;-77
2023/07/23 14:00:17;;;;;;;3.63;2.30;;;;;;;;;;5075559;28;20372;-77
2023/07/23 14:02:47;;;;;;;6.65;1.67;;;;;;;;;;5075002;28;20390;-76
2023/07/23 14:05:17;;;;;;;2.97;1.40;;;;;;;;;;5075330;28;20048;-77
2023/07/23 14:07:49;;;;;;;5.60;1.83;;;;;;;;;;5075885;28;20047;-79
2023/07/23 14:10:19;;;;;;;5.15;1.73;;;;;;;;;;5075529;28;20045;-77
2023/07/23 14:12:49;;;;;;;5.25;1.30;;;;;;;;;;5073939;28;20482;-77
2023/07/23 14:15:21;;;;;;;2.45;1.42;;;;;;;;;;5074051;28;20040;-77
2023/07/23 14:17:52;;;;;;;4.65;1.60;;;;;;;;;;5075533;28;20508;-77
2023/07/23 14:20:22;;;;;;;7.05;1.83;;;;;;;;;;5074564;28;20051;-77
2023/07/23 14:22:53;;;;;;;3.40;1.63;;;;;;;;;;5074512;28;20052;-77
2023/07/23 14:25:26;;;;;;;5.80;1.10;;;;;;;;;;5074961;28;20037;-77
2023/07/23 14:27:57;;;;;;;;;;;;;;;;;;5076192;28;20055;-77
2023/07/23 14:30:27;;;;;;;3.28;0.95;;;;;;;;;;5074904;28;20370;-77
2023/07/23 14:33:00;;;;;;;2.83;0.90;;;;;;;;;;5074680;28;20048;-77
2023/07/23 14:35:31;;;;;;;1.73;0.90;;;;;;;;;;5074981;28;20051;-77
2023/07/23 14:38:02;;;;;;;2.28;1.23;;;;;;;;;;5075054;28;20049;-76
2023/07/23 14:40:32;;;;;;;5.32;0.95;;;;;;;;;;5074270;28;20051;-77
2023/07/23 14:43:03;;;;;;;1.90;0.93;;;;;;;;;;5075115;28;20577;-78
2023/07/23 14:45:33;;;;;;;3.20;1.00;;;;;;;;;;5072311;28;20056;-76
2023/07/23 14:48:04;;;;;;;7.90;0.95;;;;;;;;;;5074938;28;20044;-76
2023/07/23 14:50:35;;;;;;;7.00;1.02;;;;;;;;;;5075219;28;20044;-78
2023/07/23 14:53:06;;;;;;;2.55;0.80;;;;;;;;;;5073600;28;20044;-77
2023/07/23 14:55:37;;;;;;;4.53;1.00;;;;;;;;;;5057004;28;20051;-76
2023/07/23 14:58:07;;;;;;;3.88;1.00;;;;;;;;;;5075097;28;20056;-78
2023/07/23 15:00:44;;;;;;;4.60;1.35;;;;;;;;;;5074381;28;20044;-76
2023/07/23 15:03:17;;;;;;;5.53;1.00;;;;;;;;;;5074713;28;20053;-76
2023/07/23 15:05:47;;;;;;;3.05;0.90;;;;;;;;;;5073374;28;20040;-77